createdAt,value
2022-11-29T00:01:42.721Z,11.00
2022-11-29T00:04:10.028Z,13.30
2022-11-29T00:06:36.722Z,13.90
2022-11-29T00:09:06.806Z,11.43
2022-11-29T00:11:54.573Z,10.85
2022-11-29T00:14:22.688Z,9.90
2022-11-29T00:16:55.517Z,11.57
2022-11-29T00:19:22.463Z,10.82
2022-11-29T00:21:49.394Z,16.03
2022-11-29T00:24:16.426Z,12.60
2022-11-29T00:26:43.126Z,12.68
2022-11-29T00:29:12.534Z,12.73
2022-11-29T00:31:40.238Z,13.85
2022-11-29T00:34:07.732Z,12.47
2022-11-29T00:36:35.569Z,11.98
2022-11-29T00:39:04.183Z,14.52
2022-11-29T00:41:31.030Z,14.98
2022-11-29T00:43:57.883Z,12.90
2022-11-29T00:46:25.280Z,12.73
2022-11-29T00:48:52.062Z,10.85
2022-11-29T00:51:18.840Z,11.40
2022-11-29T00:53:45.556Z,13.13
2022-11-29T00:56:12.396Z,13.35
2022-11-29T00:58:39.477Z,13.60
2022-11-29T01:01:08.351Z,10.73
2022-11-29T01:03:35.315Z,11.73
2022-11-29T01:06:08.967Z,11.95
2022-11-29T01:08:36.444Z,11.65
2022-11-29T01:11:05.415Z,11.60
2022-11-29T01:13:32.303Z,11.15
2022-11-29T01:16:00.302Z,9.20
2022-11-29T01:18:27.358Z,10.20
2022-11-29T01:21:03.518Z,10.38
2022-11-29T01:23:30.460Z,10.13
2022-11-29T01:26:05.600Z,10.15
2022-11-29T01:28:32.676Z,10.65
2022-11-29T01:30:59.620Z,10.75
2022-11-29T01:33:26.475Z,11.80
2022-11-29T01:35:55.164Z,12.50
2022-11-29T01:38:22.616Z,10.35
2022-11-29T01:41:06.385Z,11.50
2022-11-29T01:43:34.520Z,11.85
2022-11-29T01:46:01.254Z,10.93
2022-11-29T01:48:30.948Z,10.23
2022-11-29T01:51:00.787Z,10.63
2022-11-29T01:53:28.338Z,11.45
2022-11-29T01:56:00.620Z,14.70
2022-11-29T01:58:28.222Z,11.27
2022-11-29T02:00:57.086Z,12.67
2022-11-29T02:03:23.926Z,13.88
2022-11-29T02:05:52.243Z,12.68
2022-11-29T02:08:28.281Z,10.88
2022-11-29T02:11:20.558Z,10.82
2022-11-29T02:14:05.671Z,10.33
2022-11-29T02:16:55.046Z,11.02
2022-11-29T02:19:48.498Z,10.77
2022-11-29T02:22:38.310Z,13.40
2022-11-29T02:25:39.025Z,13.65
2022-11-29T02:28:05.652Z,10.80
2022-11-29T02:30:51.329Z,13.00
2022-11-29T02:33:36.357Z,13.48
2022-11-29T02:36:19.008Z,13.27
2022-11-29T02:39:02.831Z,11.48
2022-11-29T02:42:08.779Z,12.07
2022-11-29T02:44:35.484Z,13.00
2022-11-29T02:47:09.938Z,13.75
2022-11-29T02:50:00.794Z,11.45
2022-11-29T02:53:04.655Z,11.95
2022-11-29T02:55:43.384Z,11.63
2022-11-29T02:58:27.872Z,13.13
2022-11-29T03:01:25.141Z,11.70
2022-11-29T03:04:10.564Z,10.60
2022-11-29T03:07:07.160Z,11.73
2022-11-29T03:09:43.645Z,10.47
2022-11-29T03:12:24.390Z,11.60
2022-11-29T03:15:16.864Z,11.95
2022-11-29T03:18:21.401Z,11.18
2022-11-29T03:21:06.776Z,11.82
2022-11-29T03:23:45.438Z,10.90
2022-11-29T03:26:37.955Z,12.80
2022-11-29T03:29:17.929Z,11.00
2022-11-29T03:31:51.254Z,12.18
2022-11-29T03:34:36.091Z,11.35
2022-11-29T03:37:28.994Z,10.77
2022-11-29T03:40:04.807Z,10.88
2022-11-29T03:42:49.998Z,10.60
2022-11-29T03:45:24.965Z,11.02
2022-11-29T03:48:23.592Z,12.02
2022-11-29T03:51:00.082Z,10.83
2022-11-29T03:53:54.164Z,10.77
2022-11-29T03:56:29.972Z,10.13
2022-11-29T03:59:17.767Z,10.27
2022-11-29T04:01:54.773Z,11.40
2022-11-29T04:05:08.025Z,11.03
2022-11-29T04:07:56.580Z,12.63
2022-11-29T04:10:32.119Z,11.98
2022-11-29T04:13:07.978Z,12.77
2022-11-29T04:16:10.665Z,12.70
2022-11-29T04:19:10.604Z,10.50
2022-11-29T04:21:58.599Z,14.45
2022-11-29T04:24:50.131Z,14.05
2022-11-29T04:27:35.723Z,12.65
2022-11-29T04:30:11.649Z,13.57
2022-11-29T04:33:00.083Z,12.73
2022-11-29T04:35:33.332Z,11.38
2022-11-29T04:38:03.174Z,21.02
2022-11-29T04:40:55.890Z,25.55
2022-11-29T04:43:54.333Z,20.23
2022-11-29T04:46:26.768Z,13.03
2022-11-29T04:49:21.100Z,16.50
2022-11-29T04:52:14.977Z,13.60
2022-11-29T04:54:51.979Z,14.15
2022-11-29T04:57:32.977Z,16.42
2022-11-29T05:00:09.908Z,15.10
2022-11-29T05:02:56.016Z,14.52
2022-11-29T05:05:50.793Z,14.45
2022-11-29T05:08:32.436Z,15.85
2022-11-29T05:11:11.358Z,14.13
2022-11-29T05:14:04.605Z,15.43
2022-11-29T05:17:03.575Z,14.27
2022-11-29T05:19:56.238Z,12.88
2022-11-29T05:22:25.980Z,13.23
2022-11-29T05:25:04.271Z,17.10
2022-11-29T05:27:55.516Z,13.57
2022-11-29T05:30:24.761Z,16.05
2022-11-29T05:33:31.339Z,13.43
2022-11-29T05:36:22.541Z,15.73
2022-11-29T05:39:24.514Z,13.85
2022-11-29T05:42:20.162Z,14.10
2022-11-29T05:44:56.917Z,12.75
2022-11-29T05:47:50.788Z,14.88
2022-11-29T05:50:30.663Z,12.10
2022-11-29T05:53:08.050Z,14.35
2022-11-29T05:55:56.364Z,13.10
2022-11-29T05:58:33.563Z,17.40
2022-11-29T06:01:09.569Z,14.20
2022-11-29T06:03:53.644Z,14.88
2022-11-29T06:06:39.184Z,13.10
2022-11-29T06:09:21.200Z,13.97
2022-11-29T06:11:54.879Z,16.17
2022-11-29T06:14:52.298Z,15.88
2022-11-29T06:17:38.846Z,12.55
2022-11-29T06:20:19.258Z,16.60
2022-11-29T06:23:14.636Z,17.60
2022-11-29T06:26:22.778Z,16.30
2022-11-29T06:29:13.633Z,15.68
2022-11-29T06:31:44.634Z,14.52
2022-11-29T06:34:20.334Z,17.30
2022-11-29T06:36:52.782Z,15.50
2022-11-29T06:39:19.899Z,15.13
2022-11-29T06:41:47.166Z,11.93
2022-11-29T06:44:14.331Z,13.20
2022-11-29T06:46:54.669Z,14.10
2022-11-29T06:49:28.558Z,12.10
2022-11-29T06:52:23.176Z,15.00
2022-11-29T06:55:18.205Z,13.25
2022-11-29T06:58:03.948Z,17.52
2022-11-29T07:00:50.549Z,16.38
2022-11-29T07:03:35.390Z,15.80
2022-11-29T07:06:21.157Z,13.02
2022-11-29T07:08:52.003Z,16.45
2022-11-29T07:11:19.020Z,13.38
2022-11-29T07:13:46.039Z,18.27
2022-11-29T07:16:43.644Z,19.83
2022-11-29T07:19:32.456Z,11.60
2022-11-29T07:22:38.172Z,15.05
2022-11-29T07:25:05.983Z,11.70
2022-11-29T07:27:43.634Z,10.85
2022-11-29T07:30:15.304Z,26.80
2022-11-29T07:33:00.038Z,10.25
2022-11-29T07:36:08.830Z,38.58
2022-11-29T07:38:56.056Z,10.65
2022-11-29T07:42:18.257Z,12.52
2022-11-29T07:45:31.845Z,13.30
2022-11-29T07:47:59.325Z,14.35
2022-11-29T07:50:27.297Z,13.68
2022-11-29T07:52:55.598Z,12.60
2022-11-29T07:55:25.416Z,28.08
2022-11-29T07:57:53.077Z,20.13
2022-11-29T08:00:20.498Z,15.18
2022-11-29T08:02:52.297Z,19.10
2022-11-29T08:05:19.211Z,22.98
2022-11-29T08:07:47.345Z,24.00
2022-11-29T08:10:16.264Z,21.47
2022-11-29T08:12:52.406Z,16.73
2022-11-29T08:15:20.789Z,12.35
2022-11-29T08:17:48.264Z,14.98
2022-11-29T08:20:16.670Z,17.70
2022-11-29T08:22:43.631Z,15.27
2022-11-29T08:25:10.853Z,14.23
2022-11-29T08:27:38.512Z,12.65
2022-11-29T08:30:06.732Z,11.93
2022-11-29T08:32:34.630Z,10.48
2022-11-29T08:35:01.496Z,12.40
2022-11-29T08:37:28.313Z,9.15
2022-11-29T08:39:56.064Z,13.10
2022-11-29T08:42:22.741Z,15.40
2022-11-29T08:44:49.565Z,13.63
2022-11-29T08:47:34.739Z,13.97
2022-11-29T08:50:02.251Z,13.98
2022-11-29T08:52:53.013Z,10.50
2022-11-29T08:55:21.236Z,12.90
2022-11-29T08:57:49.263Z,11.93
2022-11-29T09:00:17.163Z,10.07
2022-11-29T09:02:44.088Z,9.48
2022-11-29T09:05:11.778Z,9.05
2022-11-29T09:07:38.934Z,8.20
2022-11-29T09:10:08.309Z,8.98
2022-11-29T09:12:39.670Z,10.43
2022-11-29T09:15:09.130Z,11.20
2022-11-29T09:17:36.039Z,8.70
2022-11-29T09:20:03.916Z,8.52
2022-11-29T09:22:31.092Z,9.20
2022-11-29T09:24:57.766Z,9.50
2022-11-29T09:27:24.525Z,10.27
2022-11-29T09:29:51.218Z,13.48
2022-11-29T09:32:18.011Z,9.70
2022-11-29T09:34:45.109Z,8.68
2022-11-29T09:37:12.153Z,9.60
2022-11-29T09:39:40.310Z,9.77
2022-11-29T09:42:09.995Z,9.30
2022-11-29T09:45:10.914Z,9.02
2022-11-29T09:47:57.822Z,8.90
2022-11-29T09:50:35.790Z,9.60
2022-11-29T09:53:26.001Z,10.35
2022-11-29T09:56:18.491Z,9.27
2022-11-29T09:59:12.612Z,9.05
2022-11-29T10:01:45.176Z,8.63
2022-11-29T10:04:19.494Z,8.57
2022-11-29T10:06:59.452Z,8.85
2022-11-29T10:09:34.470Z,8.65
2022-11-29T10:12:14.527Z,8.95
2022-11-29T10:14:45.994Z,8.65
2022-11-29T10:17:38.495Z,8.63
2022-11-29T10:20:13.615Z,9.23
2022-11-29T10:22:49.603Z,9.45
2022-11-29T10:25:23.338Z,9.20
2022-11-29T10:27:50.697Z,9.77
2022-11-29T10:30:18.130Z,7.97
2022-11-29T10:32:48.523Z,7.80
2022-11-29T10:35:18.734Z,8.10
2022-11-29T10:38:07.807Z,9.35
2022-11-29T10:40:35.864Z,8.73
2022-11-29T10:43:03.055Z,9.70
2022-11-29T10:45:50.048Z,9.05
2022-11-29T10:48:19.181Z,8.68
2022-11-29T10:50:49.104Z,8.23
2022-11-29T10:53:18.409Z,7.85
2022-11-29T10:56:06.803Z,7.90
2022-11-29T10:58:33.577Z,6.97
2022-11-29T11:01:07.790Z,7.82
2022-11-29T11:03:52.790Z,7.72
2022-11-29T11:06:19.866Z,7.40
2022-11-29T11:08:51.234Z,7.67
2022-11-29T11:11:33.809Z,7.80
2022-11-29T11:14:22.022Z,9.52
2022-11-29T11:16:49.179Z,7.80
2022-11-29T11:19:33.616Z,8.50
2022-11-29T11:22:04.235Z,17.80
2022-11-29T11:24:33.723Z,7.40
2022-11-29T11:27:01.488Z,7.45
2022-11-29T11:29:52.361Z,7.05
2022-11-29T11:32:20.544Z,8.02
2022-11-29T11:35:01.496Z,7.70
2022-11-29T11:37:31.076Z,6.68
2022-11-29T11:40:00.585Z,6.82
2022-11-29T11:42:38.941Z,7.38
2022-11-29T11:45:34.156Z,7.07
2022-11-29T11:48:13.414Z,7.43
2022-11-29T11:50:49.798Z,7.70
2022-11-29T11:53:22.304Z,8.20
2022-11-29T11:56:11.865Z,7.85
2022-11-29T11:58:44.520Z,7.88
2022-11-29T12:01:25.229Z,7.90
2022-11-29T12:03:58.493Z,8.40
2022-11-29T12:06:30.139Z,8.43
2022-11-29T12:09:32.286Z,8.25
2022-11-29T12:12:15.812Z,7.32
2022-11-29T12:14:54.765Z,7.43
2022-11-29T12:17:49.853Z,8.15
2022-11-29T12:20:42.581Z,8.18
2022-11-29T12:23:12.018Z,7.45
2022-11-29T12:25:50.760Z,7.63
2022-11-29T12:28:20.799Z,9.03
2022-11-29T12:31:11.976Z,7.53
2022-11-29T12:33:57.368Z,10.05
2022-11-29T12:36:35.380Z,9.73
2022-11-29T12:39:08.243Z,9.00
2022-11-29T12:41:53.963Z,9.70
2022-11-29T12:44:49.351Z,10.02
2022-11-29T12:47:36.473Z,10.75
2022-11-29T12:50:24.193Z,8.95
2022-11-29T12:53:24.006Z,8.75
2022-11-29T12:56:18.803Z,9.93
2022-11-29T12:59:01.858Z,10.68
2022-11-29T13:01:35.371Z,8.90
2022-11-29T13:04:22.556Z,10.02
2022-11-29T13:07:04.411Z,10.63
2022-11-29T13:10:02.527Z,11.37
2022-11-29T13:12:41.471Z,10.23
2022-11-29T13:15:14.123Z,9.77
2022-11-29T13:17:59.349Z,12.55
2022-11-29T13:20:36.534Z,11.02
2022-11-29T13:23:14.596Z,10.00
2022-11-29T13:25:44.107Z,9.27
2022-11-29T13:28:29.999Z,12.40
2022-11-29T13:31:05.947Z,9.82
2022-11-29T13:33:50.807Z,8.45
2022-11-29T13:36:48.735Z,9.80
2022-11-29T13:39:46.333Z,10.60
2022-11-29T13:42:31.923Z,10.85
2022-11-29T13:45:16.677Z,11.40
2022-11-29T13:48:00.914Z,9.35
2022-11-29T13:50:39.251Z,9.03
2022-11-29T13:53:43.898Z,10.18
2022-11-29T13:56:46.765Z,9.43
2022-11-29T13:59:36.115Z,10.45
2022-11-29T14:02:04.226Z,9.25
2022-11-29T14:04:39.744Z,9.73
2022-11-29T14:07:11.405Z,9.88
2022-11-29T14:09:47.464Z,10.48
2022-11-29T14:12:22.194Z,9.05
2022-11-29T14:14:53.394Z,9.73
2022-11-29T14:17:50.178Z,11.20
2022-11-29T14:20:22.865Z,11.13
2022-11-29T14:23:04.793Z,11.30
2022-11-29T14:28:21.681Z,9.68
2022-11-29T14:30:51.349Z,10.73
2022-11-29T14:33:42.871Z,9.65
2022-11-29T14:36:15.349Z,9.85
2022-11-29T14:39:01.049Z,9.82
2022-11-29T14:41:49.746Z,10.98
2022-11-29T14:44:28.215Z,10.90
2022-11-29T14:47:02.337Z,10.98
2022-11-29T14:49:30.004Z,10.20
2022-11-29T14:52:14.777Z,12.05
2022-11-29T14:55:21.295Z,10.82
2022-11-29T14:57:48.040Z,11.40
2022-11-29T15:00:22.207Z,11.23
2022-11-29T15:02:57.599Z,10.80
2022-11-29T15:05:33.286Z,13.40
2022-11-29T15:08:29.218Z,17.08
2022-11-29T15:11:04.357Z,10.77
2022-11-29T15:13:34.406Z,12.07
2022-11-29T15:16:22.931Z,11.27
2022-11-29T15:19:21.692Z,11.50
2022-11-29T15:22:06.412Z,11.90
2022-11-29T15:24:53.834Z,11.50
2022-11-29T15:27:21.007Z,13.18
2022-11-29T15:29:48.557Z,13.25
2022-11-29T15:32:27.959Z,14.57
2022-11-29T15:34:56.897Z,10.48
2022-11-29T15:37:30.940Z,11.40
2022-11-29T15:40:15.791Z,10.85
2022-11-29T15:42:47.346Z,10.60
2022-11-29T15:45:23.558Z,10.10
2022-11-29T15:47:50.455Z,10.68
2022-11-29T15:50:31.785Z,9.80
2022-11-29T15:53:03.876Z,10.95
2022-11-29T15:55:31.414Z,10.10
2022-11-29T15:58:02.703Z,9.95
2022-11-29T16:00:34.191Z,11.88
2022-11-29T16:03:02.695Z,10.30
2022-11-29T16:05:37.691Z,11.02
2022-11-29T16:08:08.667Z,13.07
2022-11-29T16:10:49.352Z,13.88
2022-11-29T16:13:28.269Z,12.45
2022-11-29T16:16:19.371Z,13.00
2022-11-29T16:18:48.083Z,12.93
2022-11-29T16:21:27.481Z,12.57
2022-11-29T16:23:55.074Z,14.07
2022-11-29T16:26:30.683Z,13.25
2022-11-29T16:29:05.922Z,19.90
2022-11-29T16:31:35.986Z,21.92
2022-11-29T16:34:27.606Z,13.90
2022-11-29T16:37:02.691Z,12.35
2022-11-29T16:39:29.976Z,12.77
2022-11-29T16:42:33.557Z,16.50
2022-11-29T16:45:31.354Z,14.55
2022-11-29T16:47:58.771Z,12.82
2022-11-29T16:50:33.008Z,11.55
2022-11-29T16:53:35.649Z,13.38
2022-11-29T16:56:03.981Z,10.10
2022-11-29T16:58:31.352Z,10.40
2022-11-29T17:00:58.058Z,11.50
2022-11-29T17:03:24.987Z,9.90
2022-11-29T17:05:51.796Z,8.98
2022-11-29T17:08:18.532Z,12.80
2022-11-29T17:10:45.269Z,12.73
2022-11-29T17:13:12.268Z,12.73
2022-11-29T17:15:39.047Z,14.10
2022-11-29T17:18:05.799Z,9.57
2022-11-29T17:20:32.596Z,12.23
2022-11-29T17:22:59.281Z,10.35
2022-11-29T17:25:26.012Z,8.55
2022-11-29T17:27:52.667Z,8.00
2022-11-29T17:30:19.436Z,8.32
2022-11-29T17:32:46.100Z,8.07
2022-11-29T17:35:12.937Z,7.60
2022-11-29T17:37:39.671Z,11.48
2022-11-29T17:40:07.176Z,13.32
2022-11-29T17:42:33.954Z,13.60
2022-11-29T17:45:00.674Z,12.20
2022-11-29T17:47:27.489Z,9.68
2022-11-29T17:49:54.567Z,8.80
2022-11-29T17:52:21.444Z,7.65
2022-11-29T17:54:48.195Z,6.50
2022-11-29T17:57:14.993Z,7.33
2022-11-29T17:59:41.932Z,7.93
2022-11-29T18:02:12.077Z,7.43
2022-11-29T18:04:42.196Z,7.90
2022-11-29T18:07:08.945Z,7.70
2022-11-29T18:09:35.639Z,8.10
2022-11-29T18:12:02.508Z,8.88
2022-11-29T18:14:30.879Z,10.50
2022-11-29T18:16:59.200Z,12.68
2022-11-29T18:19:26.100Z,18.98
2022-11-29T18:21:53.015Z,20.90
2022-11-29T18:24:19.994Z,13.00
2022-11-29T18:26:47.173Z,14.23
2022-11-29T18:29:14.395Z,11.23
2022-11-29T18:31:43.380Z,15.45
2022-11-29T18:34:11.780Z,18.97
2022-11-29T18:36:48.592Z,18.38
2022-11-29T18:39:17.540Z,16.48
2022-11-29T18:41:48.358Z,10.43
2022-11-29T18:44:17.389Z,9.82
2022-11-29T18:46:45.420Z,13.53
2022-11-29T18:49:15.396Z,14.90
2022-11-29T18:51:44.568Z,11.52
2022-11-29T18:54:12.420Z,11.20
2022-11-29T18:56:39.654Z,10.40
2022-11-29T18:59:10.310Z,14.23
2022-11-29T19:01:41.205Z,14.48
2022-11-29T19:04:14.629Z,15.45
2022-11-29T19:06:42.035Z,14.80
2022-11-29T19:09:21.724Z,12.88
2022-11-29T19:11:52.337Z,11.40
2022-11-29T19:14:20.765Z,11.45
2022-11-29T19:16:49.804Z,11.68
2022-11-29T19:19:18.657Z,14.70
2022-11-29T19:21:45.431Z,13.32
2022-11-29T19:24:14.995Z,9.83
2022-11-29T19:26:46.804Z,9.75
2022-11-29T19:29:14.815Z,8.02
2022-11-29T19:31:42.407Z,7.55
2022-11-29T19:34:09.264Z,8.75
2022-11-29T19:36:42.318Z,8.67
2022-11-29T19:39:09.306Z,10.40
2022-11-29T19:41:37.297Z,10.65
2022-11-29T19:44:07.477Z,13.25
2022-11-29T19:46:40.762Z,18.48
2022-11-29T19:49:08.958Z,15.17
2022-11-29T19:51:37.736Z,13.68
2022-11-29T19:54:07.039Z,12.70
2022-11-29T19:56:33.996Z,12.52
2022-11-29T19:59:00.780Z,12.18
2022-11-29T20:01:40.107Z,12.33
2022-11-29T20:04:09.594Z,12.85
2022-11-29T20:06:36.648Z,14.25
2022-11-29T20:09:04.073Z,15.55
2022-11-29T20:11:30.877Z,16.27
2022-11-29T20:13:59.910Z,13.70
2022-11-29T20:16:28.416Z,12.63
2022-11-29T20:19:01.848Z,13.25
2022-11-29T20:21:32.639Z,12.23
2022-11-29T20:24:05.889Z,11.70
2022-11-29T20:26:35.737Z,11.77
2022-11-29T20:29:04.683Z,11.55
2022-11-29T20:31:33.481Z,17.38
2022-11-29T20:34:00.630Z,16.58
2022-11-29T20:36:52.393Z,16.10
2022-11-29T20:39:47.693Z,16.27
2022-11-29T20:42:29.586Z,14.63
2022-11-29T20:45:06.573Z,15.98
2022-11-29T20:47:45.558Z,15.05
2022-11-29T20:50:27.470Z,14.70
2022-11-29T20:53:12.404Z,14.73
2022-11-29T20:55:44.828Z,14.18
2022-11-29T20:58:14.371Z,14.40
2022-11-29T21:00:41.164Z,13.73
2022-11-29T21:03:07.870Z,14.60
2022-11-29T21:05:38.134Z,14.13
2022-11-29T21:08:05.122Z,14.15
2022-11-29T21:10:31.948Z,13.23
2022-11-29T21:12:59.201Z,12.77
2022-11-29T21:15:26.715Z,12.77
2022-11-29T21:17:53.925Z,13.40
2022-11-29T21:20:26.298Z,13.20
2022-11-29T21:23:01.881Z,13.40
2022-11-29T21:25:58.055Z,13.98
2022-11-29T21:28:31.923Z,14.73
2022-11-29T21:30:58.859Z,13.40
2022-11-29T21:33:25.776Z,13.70
2022-11-29T21:35:55.222Z,14.30
2022-11-29T21:38:25.323Z,14.15
2022-11-29T21:40:52.191Z,14.35
2022-11-29T21:43:20.703Z,14.33
2022-11-29T21:45:49.692Z,13.70
2022-11-29T21:48:34.990Z,14.00
2022-11-29T21:51:09.291Z,13.35
2022-11-29T21:53:37.729Z,13.35
2022-11-29T21:56:07.493Z,13.60
2022-11-29T21:58:35.588Z,13.82
2022-11-29T22:01:17.299Z,13.93
2022-11-29T22:03:44.671Z,14.48
2022-11-29T22:06:18.297Z,14.77
2022-11-29T22:08:45.057Z,14.43
2022-11-29T22:11:17.434Z,14.40
2022-11-29T22:14:03.203Z,14.27
2022-11-29T22:16:30.604Z,14.30
2022-11-29T22:18:57.387Z,15.10
2022-11-29T22:21:24.176Z,15.30
2022-11-29T22:23:52.733Z,14.70
2022-11-29T22:26:19.462Z,15.38
2022-11-29T22:28:46.195Z,14.77
2022-11-29T22:31:13.126Z,15.27
2022-11-29T22:33:40.238Z,15.43
2022-11-29T22:36:11.780Z,16.33
2022-11-29T22:38:39.458Z,16.00
2022-11-29T22:41:11.223Z,15.40
2022-11-29T22:43:39.643Z,15.30
2022-11-29T22:46:12.920Z,15.47
2022-11-29T22:48:40.979Z,15.18
2022-11-29T22:51:16.227Z,14.80
2022-11-29T22:53:47.801Z,15.60
2022-11-29T22:56:14.595Z,15.50
2022-11-29T22:58:41.392Z,15.10
2022-11-29T23:01:10.733Z,15.35
2022-11-29T23:03:40.672Z,14.85
2022-11-29T23:06:13.554Z,15.35
2022-11-29T23:08:42.046Z,17.58
2022-11-29T23:11:11.434Z,17.33
2022-11-29T23:13:40.374Z,16.23
2022-11-29T23:16:10.382Z,14.70
2022-11-29T23:18:38.474Z,14.40
2022-11-29T23:21:14.855Z,14.38
2022-11-29T23:23:42.095Z,13.80
2022-11-29T23:26:15.736Z,16.23
2022-11-29T23:28:42.402Z,15.07
2022-11-29T23:31:09.060Z,14.73
2022-11-29T23:33:35.777Z,14.40
2022-11-29T23:36:05.901Z,14.13
2022-11-29T23:38:33.487Z,14.68
2022-11-29T23:41:00.283Z,14.38
2022-11-29T23:43:35.378Z,13.90
2022-11-29T23:46:10.143Z,14.20
2022-11-29T23:48:36.918Z,14.90
2022-11-29T23:51:10.063Z,14.45
2022-11-29T23:53:37.861Z,14.63
2022-11-29T23:56:07.023Z,17.90
2022-11-29T23:58:35.821Z,22.23
